Historique des mesures à Cassis (13260), France
Quotidien Résumé Octobre 2, 2018 Unités:  Métrique    US   Métrique/US
« Précédent (Jour)
Suivant (Jour) »
Quotidien Hebdomadaire Mensuel Annuel Période au choix
  Maximum: Minimum: Moyenne:
Température: TemperatureC °C 12.9 °C 16.3 °C
Point de rosée: DewpointC °C 2.8 °C 4.2 °C
Humidité: Humidity % 36 % 42 %
Vitesse du vent: 0 km/h 0 km/h 18.3 km/h
Rafales: 0 km/h - -
Vent:- - SSW
Pression: PressurehPa hPa 1007.5 hPa -
Précipitations: 13.5 mm    
Historical Graphs
 
 
Mesures pour : Octobre 2, 2018
Heure Temperature Point de rosée Pression Vent Vitesse du vent Rafales Humidité Pluie (par heure) Conditions
TemperatureC °C DewpointC °C PressurehPa hPa Calm     Humidity % HourlyPrecipMM mm SoftwareType W/m2
00:10 14.5 °C 3.6 °C 1007.5 hPa NW 33 km/h 37.7 km/h 48 % 0.0 mm open2300-1.11 W/m2
01:10 14.8 °C 3.1 °C 1007.6 hPa North 32.5 km/h 34.1 km/h 46 % 0.0 mm open2300-1.11 W/m2
02:10 14.8 °C 2.9 °C 1007.8 hPa North 27.8 km/h 45.2 km/h 45 % 0.0 mm open2300-1.11 W/m2
03:10 14.4 °C 2.9 °C 1007.9 hPa NW 25.4 km/h 54.4 km/h 46 % 0.0 mm open2300-1.11 W/m2
04:10 14.3 °C 2.8 °C 1008.6 hPa North 10.5 km/h 15.1 km/h 46 % 0.0 mm open2300-1.11 W/m2
05:10 13.9 °C 3.4 °C 1008.4 hPa NW 41.7 km/h 42.3 km/h 49 % 0.0 mm open2300-1.11 W/m2
06:10 13.5 °C 3.3 °C 1009.5 hPa West 23.8 km/h 35.9 km/h 50 % 0.0 mm open2300-1.11 W/m2
07:10 13.1 °C 3.4 °C 1010.4 hPa NE 5.1 km/h 6.4 km/h 52 % 0.0 mm open2300-1.11 W/m2
08:10 12.9 °C 3.2 °C 1011.0 hPa ENE 4 km/h 5.8 km/h 52 % 0.0 mm open2300-1.11 W/m2
09:10 13.9 °C 3.7 °C 1011.5 hPa WNW 39.4 km/h 39.4 km/h 50 % 0.0 mm open2300-1.11 W/m2
10:10 15.1 °C 3.8 °C 1012.3 hPa WNW 30.7 km/h 30.7 km/h 47 % 0.0 mm open2300-1.11 W/m2
11:10 17.0 °C 4.3 °C 1012.7 hPa West 7.6 km/h 14.5 km/h 43 % 0.0 mm open2300-1.11 W/m2
12:10 18.9 °C 5.0 °C 1012.7 hPa West 26.7 km/h 26.7 km/h 40 % 0.0 mm open2300-1.11 W/m2
13:10 20.3 °C 5.0 °C 1012.6 hPa NW 17.4 km/h 17.4 km/h 37 % 0.0 mm open2300-1.11 W/m2
14:10 21.2 °C 5.8 °C 1012.7 hPa WNW 27.2 km/h 31.2 km/h 37 % 0.0 mm open2300-1.11 W/m2
15:10 21.5 °C 6.1 °C 1012.4 hPa WNW 20.3 km/h 23.8 km/h 37 % 0.0 mm open2300-1.11 W/m2
16:10 21.8 °C 6.0 °C 1012.6 hPa West 17.4 km/h 17.4 km/h 36 % 0.0 mm open2300-1.11 W/m2
17:10 21.9 °C 7.3 °C 1013.1 hPa SW 5.1 km/h 7.6 km/h 39 % 6.6 mm open2300-1.11 W/m2
18:10 21.1 °C 8.0 °C 1013.1 hPa Calm   3.5 km/h 43 % 0.0 mm open2300-1.11 W/m2
19:10 19.9 °C 5.1 °C 1013.4 hPa WNW 23.8 km/h 23.8 km/h 38 % 0.0 mm open2300-1.11 W/m2
20:10 18.3 °C 4.5 °C 1013.9 hPa WNW 15.1 km/h 15.1 km/h 40 % 0.0 mm open2300-1.11 W/m2
21:10 17.3 °C 3.9 °C 1014.5 hPa NNW 8.7 km/h 9.3 km/h 41 % 0.0 mm open2300-1.11 W/m2
22:10 17.1 °C 4.0 °C 1015.1 hPa NE 11.6 km/h 11.6 km/h 42 % 0.0 mm open2300-1.11 W/m2
23:10 16.9 °C 4.2 °C 1015.3 hPa North 2.9 km/h 2.9 km/h 43 % 0.0 mm open2300-1.11 W/m2
Observations météo à CASSIS
WU-History script by Weather Underground - 1 mb